Latest Weather Observations for Bankstown

IDN60901

Issued at 10:31 pm EDT Thursday 23 February 2017 (issued every 10 minutes, with the page automatically refreshed every 10 minutes)

About weather observations | Map of Sydney area stations | Latest observations for Sydney area | Other Formats
Station Details ID: 066137 Name: BANKSTOWN AIRPORT AWS Lat: -33.92 Lon: 150.99 Height: 6.5 m
Data from the previous 72 hours. | See also: Recent months at Bankstown
Date/Time
EDT
Temp
°C
App
Temp
°C
Dew
Point
°C
Rel
Hum
%
Delta-T
°C
Wind Press
QNH
hPa
Press
MSL
hPa
Rain since
9am
mm
Dir  Spd
km/h
Gust
km/h
Spd
kts
Gust
kts
23/10:30pm 23.9 24.0 16.4 63 4.6 ENE 11 13 6 7 1018.5 1018.5 0.0
23/10:00pm 24.3 24.6 16.0 60 5.0 ENE 9 13 5 7 1018.5 1018.5 0.0
23/09:30pm 24.6 24.1 15.8 58 5.3 ENE 13 20 7 11 1018.4 1018.4 0.0
23/09:00pm 25.0 24.8 15.6 56 5.7 ENE 11 19 6 10 1017.9 1017.9 0.0
23/08:30pm 25.4 25.0 15.1 53 6.2 ENE 11 15 6 8 1017.5 1017.5 0.0
23/08:00pm 25.7 24.9 15.1 52 6.4 NE 13 19 7 10 1017.1 1017.1 0.0
23/07:30pm 26.4 25.3 15.4 50 6.7 NE 15 22 8 12 1016.5 1016.5 0.0
23/07:00pm 27.3 25.7 16.0 50 6.9 ENE 19 30 10 16 1016.4 1016.4 0.0
23/06:30pm 28.1 27.1 16.7 50 7.1 NE 17 26 9 14 1016.0 1016.0 0.0
23/06:00pm 28.6 27.3 16.8 48 7.4 ENE 19 26 10 14 1015.7 1015.7 0.0
23/05:30pm 29.1 27.3 17.0 48 7.6 ENE 22 32 12 17 1015.7 1015.7 0.0
23/05:00pm 29.8 28.0 16.9 45 8.1 ENE 22 30 12 16 1015.6 1015.6 0.0
23/04:30pm 30.6 29.2 17.0 44 8.6 ENE 20 28 11 15 1015.5 1015.5 0.0
23/04:00pm 30.8 29.1 17.1 43 8.7 E 22 32 12 17 1015.9 1015.9 0.0
23/03:30pm 30.6 29.3 17.3 45 8.4 ENE 20 30 11 16 1016.0 1016.0 0.0
23/03:00pm 31.2 29.7 16.8 42 9.1 ENE 20 32 11 17 1016.3 1016.3 0.0
23/02:30pm 30.9 29.5 16.5 42 9.0 ENE 19 26 10 14 1016.7 1016.7 0.0
23/02:00pm 31.1 30.3 17.0 42 8.9 NE 17 24 9 13 1016.8 1016.8 0.0
23/01:30pm 31.2 30.3 16.8 42 9.1 ENE 17 20 9 11 1017.3 1017.3 0.0
23/01:00pm 32.0 32.1 15.5 37 10.2 N 9 15 5 8 1017.6 1017.6 0.0
23/12:30pm 30.0 30.0 15.3 41 9.0 NNW 9 17 5 9 1018.0 1018.0 0.0
23/12:00pm 29.6 30.4 16.4 45 8.2 NW 7 15 4 8 1018.3 1018.3 0.0
23/11:30am 28.8 29.1 16.0 45 7.9 NNW 9 15 5 8 1018.6 1018.6 0.0
23/11:00am 27.7 28.2 16.6 50 6.9 NNW 9 17 5 9 1019.0 1019.0 0.0
23/10:30am 26.9 28.2 17.1 55 6.1 NNE 6 13 3 7 1019.2 1019.2 0.0
23/10:00am 25.0 25.1 16.4 59 5.3 N 11 15 6 8 1019.5 1019.5 0.0
23/09:30am 23.9 24.3 16.4 63 4.6 N 9 13 5 7 1019.7 1019.7 0.0
23/09:00am 23.3 23.9 16.8 67 4.0 N 9 15 5 8 1019.7 1019.7 0.0
23/08:30am 22.1 23.0 16.6 71 3.3 N 7 11 4 6 1019.6 1019.6 0.0
23/08:00am 20.8 23.3 17.2 80 2.2 CALM 0 0 0 0 1019.4 1019.4 0.0
23/07:30am 19.5 22.0 17.3 87 1.3 CALM 0 0 0 0 1019.2 1019.2 0.0
23/07:00am 18.1 20.1 15.9 87 1.3 CALM 0 0 0 0 1019.1 1019.1 0.0
23/06:30am 18.1 20.1 15.9 87 1.3 CALM 0 0 0 0 1018.7 1018.7 0.0
23/06:00am 18.1 20.0 15.7 86 1.4 CALM 0 0 0 0 1018.4 1018.4 0.0
23/05:30am 18.2 20.1 15.8 86 1.4 CALM 0 0 0 0 1018.4 1018.4 0.0
23/05:00am 19.1 21.4 16.7 86 1.4 CALM 0 0 0 0 1018.3 1018.3 0.0
23/04:30am 18.6 20.5 15.8 84 1.7 CALM 0 0 0 0 1018.4 1018.4 0.0
23/04:00am 18.8 20.8 15.9 83 1.7 CALM 0 0 0 0 1018.3 1018.3 0.0
23/03:30am 19.5 20.7 15.8 79 2.2 NNE 4 6 2 3 1018.3 1018.3 0.0
23/03:00am 21.2 21.9 16.2 73 3.0 NNE 7 9 4 5 1018.3 1018.3 0.0
23/02:30am 21.5 22.4 16.0 71 3.3 NNE 6 9 3 5 1018.5 1018.5 0.0
23/02:00am 22.0 22.8 16.3 70 3.4 NE 7 15 4 8 1018.6 1018.6 0.0
23/01:30am 22.1 22.8 16.1 69 3.6 NE 7 13 4 7 1018.6 1018.6 0.0
23/01:00am 22.3 23.0 16.1 68 3.7 ENE 7 50 4 27 1018.9 1018.9 0.0
23/12:30am 22.6 22.6 16.2 67 3.9 ENE 11 15 6 8 1019.0 1019.0 0.0
23/12:00am 22.8 23.5 16.1 66 4.0 NE 7 9 4 5 1019.2 1019.2 0.0
 
Date/Time
EDT
Temp
°C
App
Temp
°C
Dew
Point
°C
Rel
Hum
%
Delta-T
°C
Wind Press
QNH
hPa
Press
MSL
hPa
Rain since
9am
mm
Dir  Spd
km/h
Gust
km/h
Spd
kts
Gust
kts
22/11:30pm 23.0 23.3 16.1 65 4.2 NNE 9 13 5 7 1019.1 1019.1 0.0
22/11:00pm 23.1 23.4 15.9 64 4.3 NNE 9 15 5 8 1019.0 1019.0 0.0
22/10:30pm 23.3 23.6 16.1 64 4.4 NNE 9 15 5 8 1019.1 1019.1 0.0
22/10:00pm 23.5 23.1 16.1 63 4.5 NNE 13 20 7 11 1019.0 1019.0 0.0
22/09:30pm 23.7 22.9 16.0 62 4.7 NNE 15 24 8 13 1018.9 1018.9 0.0
22/09:00pm 24.0 22.9 16.3 62 4.7 NNE 17 26 9 14 1018.6 1018.6 0.0
22/08:30pm 24.2 23.5 16.5 62 4.7 NNE 15 28 8 15 1018.2 1018.2 0.0
22/08:00pm 24.5 23.7 16.2 60 5.1 NNE 15 26 8 14 1017.6 1017.6 0.0
22/07:30pm 25.0 22.7 15.6 56 5.7 NE 22 35 12 19 1017.3 1017.3 0.0
22/07:00pm 25.7 23.3 15.4 53 6.2 NE 22 32 12 17 1016.9 1016.9 0.0
22/06:30pm 26.0 22.3 15.1 51 6.6 NE 28 43 15 23 1016.7 1016.7 0.0
22/06:00pm 26.9 23.6 15.0 48 7.2 NE 26 39 14 21 1016.7 1016.7 0.0
22/05:30pm 27.4 24.5 15.1 47 7.5 NE 24 35 13 19 1016.6 1016.6 0.0
22/05:00pm 27.5 23.9 15.2 47 7.5 NE 28 39 15 21 1016.8 1016.8 0.0
22/04:30pm 28.3 25.1 15.2 44 8.0 ENE 26 39 14 21 1016.9 1016.9 0.0
22/04:00pm 28.2 24.4 14.8 44 8.1 NE 28 37 15 20 1017.1 1017.1 0.0
22/03:30pm 28.9 25.9 15.8 45 8.1 ENE 26 39 14 21 1017.3 1017.3 0.0
22/03:00pm 28.4 25.3 15.7 46 7.8 ENE 26 39 14 21 1017.6 1017.6 0.0
22/02:30pm 29.4 27.2 15.9 44 8.4 ENE 22 35 12 19 1018.1 1018.1 0.0
22/02:00pm 28.9 25.7 15.4 44 8.3 ENE 26 41 14 22 1018.5 1018.5 0.0
22/01:30pm 28.6 25.5 15.5 45 8.0 ENE 26 37 14 20 1018.8 1018.8 0.0
22/01:00pm 29.0 27.2 15.9 45 8.1 ENE 20 35 11 19 1019.2 1019.2 0.0
22/12:30pm 29.0 27.6 15.5 44 8.3 NE 17 26 9 14 1019.5 1019.5 0.0
22/12:00pm 27.7 25.6 14.7 45 7.8 NE 19 30 10 16 1020.0 1020.0 0.0
22/11:30am 28.1 27.4 15.4 46 7.8 N 13 22 7 12 1020.5 1020.5 0.0
22/11:00am 27.1 26.6 15.8 50 6.9 NNW 13 19 7 10 1021.0 1021.0 0.0
22/10:30am 26.4 25.5 15.8 52 6.5 NNW 15 20 8 11 1021.3 1021.3 0.0
22/10:00am 24.7 23.1 15.1 55 5.7 N 17 24 9 13 1021.6 1021.6 0.0
22/09:30am 24.9 25.7 16.3 59 5.3 N 7 13 4 7 1021.7 1021.7 0.0
22/09:00am 23.2 24.3 16.5 66 4.1 NW 6 9 3 5 1021.7 1021.7 0.0
22/08:30am 20.6 22.4 15.6 73 3.0 CALM 0 0 0 0 1021.6 1021.6 0.0
22/08:00am 19.2 20.9 15.3 78 2.3 CALM 0 0 0 0 1021.4 1021.4 0.0
22/07:30am 17.7 19.3 15.0 84 1.6 CALM 0 0 0 0 1021.1 1021.1 0.0
22/07:00am 16.5 18.0 14.7 89 1.0 CALM 0 0 0 0 1020.7 1020.7 0.0
22/06:30am 16.3 17.7 14.5 89 1.0 CALM 0 0 0 0 1020.4 1020.4 0.0
22/06:00am 16.8 18.4 14.8 88 1.1 CALM 0 0 0 0 1020.1 1020.1 0.0
22/05:30am 16.5 17.9 14.3 87 1.3 CALM 0 0 0 0 1020.1 1020.1 0.0
22/05:00am 17.3 18.9 14.9 86 1.4 CALM 0 0 0 0 1019.9 1019.9 0.0
22/04:30am 17.2 18.7 14.7 85 1.4 CALM 0 0 0 0 1019.9 1019.9 0.0
22/04:00am 17.3 18.7 14.4 83 1.7 CALM 0 0 0 0 1019.8 1019.8 0.0
22/03:30am 18.3 20.0 15.2 82 1.8 CALM 0 0 0 0 1019.8 1019.8 0.0
22/03:00am 18.1 19.7 14.8 81 1.9 CALM 0 0 0 0 1019.8 1019.8 0.0
22/02:30am 18.3 19.8 14.6 79 2.1 CALM 0 0 0 0 1020.0 1020.0 0.0
22/02:00am 18.9 20.5 14.8 77 2.4 CALM 0 0 0 0 1020.2 1020.2 0.0
22/01:30am 19.0 20.4 14.5 75 2.6 CALM 0 0 0 0 1020.6 1020.6 0.0
22/01:00am 19.6 20.9 14.2 71 3.1 CALM 0 0 0 0 1020.7 1020.7 0.0
22/12:30am 21.0 22.1 14.6 67 3.7 N 2 6 1 3 1020.9 1020.9 0.0
22/12:00am 21.2 21.6 14.8 67 3.8 N 6 7 3 4 1021.0 1021.0 0.0
 
Date/Time
EDT
Temp
°C
App
Temp
°C
Dew
Point
°C
Rel
Hum
%
Delta-T
°C
Wind Press
QNH
hPa
Press
MSL
hPa
Rain since
9am
mm
Dir  Spd
km/h
Gust
km/h
Spd
kts
Gust
kts
21/11:30pm 21.4 22.8 14.3 64 4.1 CALM 0 0 0 0 1021.1 1021.1 0.0
21/11:00pm 22.2 22.8 14.3 61 4.6 NNE 4 9 2 5 1021.2 1021.2 0.0
21/10:30pm 22.9 22.3 14.5 59 5.0 NNE 11 20 6 11 1021.1 1021.1 0.0
21/10:00pm 23.3 22.4 14.8 59 5.0 NNE 13 20 7 11 1021.1 1021.1 0.0
21/09:30pm 23.6 22.0 15.1 59 5.1 NNE 17 28 9 15 1020.9 1020.9 0.0
21/09:00pm 24.0 23.5 15.0 57 5.4 NE 11 24 6 13 1020.7 1020.7 0.0
21/08:30pm 24.2 22.6 14.0 53 6.0 NE 15 24 8 13 1020.3 1020.3 0.0
21/08:00pm 24.3 22.9 14.4 54 5.8 NE 15 24 8 13 1019.8 1019.8 0.0
21/07:30pm 24.8 22.4 13.7 50 6.5 NE 19 26 10 14 1019.5 1019.5 0.0
21/07:00pm 25.1 23.4 13.6 49 6.7 ENE 15 22 8 12 1019.1 1019.1 0.0
21/06:30pm 25.3 22.0 12.9 46 7.2 ENE 22 30 12 16 1018.5 1018.5 0.0
21/06:00pm 25.8 23.1 14.6 50 6.7 E 22 35 12 19 1018.1 1018.1 0.0
21/05:30pm 26.1 23.2 12.9 44 7.7 ENE 20 30 11 16 1018.0 1018.0 0.0
21/05:00pm 26.3 23.5 12.7 43 7.9 E 19 24 10 13 1018.0 1018.0 0.0
21/04:30pm 26.4 23.8 12.1 41 8.2 ENE 17 30 9 16 1018.1 1018.1 0.0
21/04:00pm 26.5 22.7 12.5 41 8.1 ESE 24 33 13 18 1018.1 1018.1 0.0
21/03:30pm 25.5 22.5 12.4 44 7.5 E 20 30 11 16 1018.2 1018.2 0.0
21/03:00pm 26.7 24.1 13.8 45 7.6 ESE 20 33 11 18 1018.2 1018.2 0.0
21/02:30pm 26.2 23.0 13.0 44 7.7 E 22 37 12 20 1018.6 1018.6 0.0
21/02:00pm 26.7 24.5 13.4 43 7.8 ENE 17 37 9 20 1018.9 1018.9 0.0
21/01:30pm 26.6 24.6 12.6 42 8.1 ENE 15 24 8 13 1019.3 1019.3 0.0
21/01:00pm 25.7 23.3 11.5 41 8.0 NE 15 28 8 15 1019.4 1019.4 0.0
21/12:30pm 26.5 23.6 11.0 38 8.8 ESE 17 24 9 13 1019.6 1019.6 0.0
21/12:00pm 25.2 22.5 10.3 39 8.2 SE 15 20 8 11 1020.0 1020.0 0.0
21/11:30am 25.2 23.7 9.1 36 8.7 ESE 7 17 4 9 1020.3 1020.3 0.0
21/11:00am 25.2 23.9 9.1 36 8.7 N 6 9 3 5 1020.5 1020.5 0.0
21/10:30am 23.4 21.8 8.7 39 7.9 SSE 7 11 4 6 1020.6 1020.6 0.0
21/10:00am 22.3 20.4 7.7 39 7.6 NW 7 9 4 5 1020.5 1020.5 0.0
21/09:30am 20.8 18.6 6.4 39 7.3 W 7 15 4 8 1020.3 1020.3 0.0
21/09:00am 19.5 16.9 5.9 41 6.7 SW 9 15 5 8 1020.0 1020.0 0.0
21/08:30am 18.1 15.2 6.3 46 5.8 SW 11 15 6 8 1019.6 1019.6 0.0
21/08:00am 17.1 14.9 6.3 49 5.3 SW 7 13 4 7 1019.1 1019.1 0.0
21/07:30am 16.3 14.4 7.5 56 4.4 SW 7 11 4 6 1018.9 1018.9 0.0
21/07:00am 15.6 13.4 5.5 51 4.8 WSW 6 9 3 5 1018.3 1018.3 0.0
21/06:30am 15.2 13.0 5.1 51 4.8 WSW 6 7 3 4 1018.0 1018.0 0.0
21/06:00am 15.4 13.2 5.3 51 4.8 WSW 6 7 3 4 1017.7 1017.7 0.0
21/05:30am 15.4 12.9 5.0 50 4.9 WSW 7 11 4 6 1017.4 1017.4 0.0
21/05:00am 15.8 14.3 5.1 49 5.1 WSW 2 7 1 4 1017.2 1017.2 0.0
21/04:30am 16.1 13.9 5.4 49 5.1 WSW 6 7 3 4 1017.2 1017.2 0.0
21/04:00am 16.1 13.9 5.1 48 5.2 WSW 6 6 3 3 1017.3 1017.3 0.0
21/03:30am 16.4 15.3 5.1 47 5.4 CALM 0 0 0 0 1017.1 1017.1 0.0
21/03:00am 16.1 14.4 5.7 50 5.0 WSW 4 6 2 3 1017.0 1017.0 0.0
21/02:30am 16.2 15.6 7.4 56 4.4 CALM 0 0 0 0 1017.0 1017.0 0.0
21/02:00am 15.6 15.3 8.8 64 3.5 CALM 0 0 0 0 1016.9 1016.9 0.0
21/01:30am 15.9 15.8 9.3 65 3.4 CALM 0 0 0 0 1017.0 1017.0 0.0
21/01:00am 15.8 15.0 9.7 67 3.2 NNE 4 7 2 4 1017.2 1017.2 0.0
21/12:30am 16.4 16.3 9.6 64 3.5 CALM 0 0 0 0 1017.1 1017.1 0.0
21/12:00am 16.8 16.0 9.5 62 3.8 NNE 4 7 2 4 1017.0 1017.0 0.0
 
Date/Time
EDT
Temp
°C
App
Temp
°C
Dew
Point
°C
Rel
Hum
%
Delta-T
°C
Wind Press
QNH
hPa
Press
MSL
hPa
Rain since
9am
mm
Dir  Spd
km/h
Gust
km/h
Spd
kts
Gust
kts
20/11:30pm 17.4 17.4 9.8 61 4.0 CALM 0 0 0 0 1016.6 1016.6 0.0
20/11:00pm 18.1 18.1 9.7 58 4.4 CALM 0 0 0 0 1016.3 1016.3 0.0

Latest Capital City Observations: Canberra | Sydney | Melbourne | Brisbane | Adelaide | Perth | Hobart | Darwin

Other Formats:

Comma delimited format used in spreadsheet applications
http://www.bom.gov.au/fwo/IDN60901/IDN60901.94765.axf

JavaScript Object Notation format (JSON) in row-major order
http://www.bom.gov.au/fwo/IDN60901/IDN60901.94765.json